sensor_id;sensor_type;location;lat;lon;timestamp;P1;durP1;ratioP1;P2;durP2;ratioP2
5060;SDS011;2549;52.128;21.068;2022-12-07T00:01:50;19.55;;;12.18;;
5060;SDS011;2549;52.128;21.068;2022-12-07T00:04:17;19.27;;;12.25;;
5060;SDS011;2549;52.128;21.068;2022-12-07T00:06:45;23.73;;;11.95;;
5060;SDS011;2549;52.128;21.068;2022-12-07T00:09:16;23.60;;;12.40;;
5060;SDS011;2549;52.128;21.068;2022-12-07T00:11:44;25.70;;;12.57;;
5060;SDS011;2549;52.128;21.068;2022-12-07T00:14:14;25.27;;;13.85;;
5060;SDS011;2549;52.128;21.068;2022-12-07T00:16:42;23.55;;;13.57;;
5060;SDS011;2549;52.128;21.068;2022-12-07T00:19:11;26.65;;;13.68;;
5060;SDS011;2549;52.128;21.068;2022-12-07T00:21:39;26.70;;;12.77;;
5060;SDS011;2549;52.128;21.068;2022-12-07T00:24:07;25.25;;;13.43;;
5060;SDS011;2549;52.128;21.068;2022-12-07T00:26:35;22.15;;;12.80;;
5060;SDS011;2549;52.128;21.068;2022-12-07T00:29:05;22.80;;;12.55;;
5060;SDS011;2549;52.128;21.068;2022-12-07T00:31:34;21.35;;;12.10;;
5060;SDS011;2549;52.128;21.068;2022-12-07T00:34:06;20.42;;;12.82;;
5060;SDS011;2549;52.128;21.068;2022-12-07T00:36:33;20.20;;;12.38;;
5060;SDS011;2549;52.128;21.068;2022-12-07T00:39:00;22.60;;;12.70;;
5060;SDS011;2549;52.128;21.068;2022-12-07T00:41:29;24.75;;;13.30;;
5060;SDS011;2549;52.128;21.068;2022-12-07T00:43:56;25.30;;;13.35;;
5060;SDS011;2549;52.128;21.068;2022-12-07T00:46:24;20.85;;;11.30;;
5060;SDS011;2549;52.128;21.068;2022-12-07T00:48:51;23.48;;;13.13;;
5060;SDS011;2549;52.128;21.068;2022-12-07T00:51:21;23.55;;;13.77;;
5060;SDS011;2549;52.128;21.068;2022-12-07T00:53:49;19.13;;;12.27;;
5060;SDS011;2549;52.128;21.068;2022-12-07T00:56:18;31.05;;;13.23;;
5060;SDS011;2549;52.128;21.068;2022-12-07T00:58:54;23.42;;;12.82;;
5060;SDS011;2549;52.128;21.068;2022-12-07T01:01:26;23.50;;;12.65;;
5060;SDS011;2549;52.128;21.068;2022-12-07T01:03:55;22.27;;;12.57;;
5060;SDS011;2549;52.128;21.068;2022-12-07T01:06:22;24.55;;;13.32;;
5060;SDS011;2549;52.128;21.068;2022-12-07T01:08:50;24.02;;;13.15;;
5060;SDS011;2549;52.128;21.068;2022-12-07T01:11:18;22.25;;;13.07;;
5060;SDS011;2549;52.128;21.068;2022-12-07T01:13:50;21.95;;;12.15;;
5060;SDS011;2549;52.128;21.068;2022-12-07T01:16:18;22.15;;;13.07;;
5060;SDS011;2549;52.128;21.068;2022-12-07T01:18:47;23.02;;;13.30;;
5060;SDS011;2549;52.128;21.068;2022-12-07T01:21:16;23.45;;;12.57;;
5060;SDS011;2549;52.128;21.068;2022-12-07T01:23:45;22.40;;;12.00;;
5060;SDS011;2549;52.128;21.068;2022-12-07T01:26:14;25.88;;;12.40;;
5060;SDS011;2549;52.128;21.068;2022-12-07T01:28:44;26.17;;;13.55;;
5060;SDS011;2549;52.128;21.068;2022-12-07T01:31:12;26.05;;;12.98;;
5060;SDS011;2549;52.128;21.068;2022-12-07T01:33:44;22.30;;;12.32;;
5060;SDS011;2549;52.128;21.068;2022-12-07T01:38:51;20.00;;;11.82;;
5060;SDS011;2549;52.128;21.068;2022-12-07T01:41:23;32.40;;;11.18;;
5060;SDS011;2549;52.128;21.068;2022-12-07T01:46:42;23.73;;;11.02;;
5060;SDS011;2549;52.128;21.068;2022-12-07T01:49:28;19.73;;;10.65;;
5060;SDS011;2549;52.128;21.068;2022-12-07T01:52:13;22.98;;;9.93;;
5060;SDS011;2549;52.128;21.068;2022-12-07T01:54:42;17.50;;;9.40;;
5060;SDS011;2549;52.128;21.068;2022-12-07T01:57:10;17.85;;;10.05;;
5060;SDS011;2549;52.128;21.068;2022-12-07T01:59:39;13.30;;;8.80;;
5060;SDS011;2549;52.128;21.068;2022-12-07T02:02:10;21.02;;;8.90;;
5060;SDS011;2549;52.128;21.068;2022-12-07T02:04:44;16.30;;;8.10;;
5060;SDS011;2549;52.128;21.068;2022-12-07T02:07:12;12.85;;;7.88;;
5060;SDS011;2549;52.128;21.068;2022-12-07T02:09:39;15.73;;;7.75;;
5060;SDS011;2549;52.128;21.068;2022-12-07T02:12:06;12.63;;;7.82;;
5060;SDS011;2549;52.128;21.068;2022-12-07T02:14:33;13.57;;;7.47;;
5060;SDS011;2549;52.128;21.068;2022-12-07T02:17:07;12.18;;;7.65;;
5060;SDS011;2549;52.128;21.068;2022-12-07T02:20:00;11.02;;;7.53;;
5060;SDS011;2549;52.128;21.068;2022-12-07T02:31:43;10.50;;;6.57;;
5060;SDS011;2549;52.128;21.068;2022-12-07T02:36:51;10.65;;;6.68;;
5060;SDS011;2549;52.128;21.068;2022-12-07T02:42:33;9.60;;;5.90;;
5060;SDS011;2549;52.128;21.068;2022-12-07T02:45:08;8.80;;;6.22;;
5060;SDS011;2549;52.128;21.068;2022-12-07T02:47:39;7.18;;;5.85;;
5060;SDS011;2549;52.128;21.068;2022-12-07T02:50:07;7.05;;;6.05;;
5060;SDS011;2549;52.128;21.068;2022-12-07T02:52:34;7.72;;;4.90;;
5060;SDS011;2549;52.128;21.068;2022-12-07T02:55:01;7.53;;;5.55;;
5060;SDS011;2549;52.128;21.068;2022-12-07T02:58:13;10.85;;;6.18;;
5060;SDS011;2549;52.128;21.068;2022-12-07T03:00:21;8.48;;;6.00;;
5060;SDS011;2549;52.128;21.068;2022-12-07T03:02:58;9.98;;;5.82;;
5060;SDS011;2549;52.128;21.068;2022-12-07T03:08:47;7.18;;;5.10;;
5060;SDS011;2549;52.128;21.068;2022-12-07T03:11:24;6.82;;;4.30;;
5060;SDS011;2549;52.128;21.068;2022-12-07T03:14:00;4.90;;;4.22;;
5060;SDS011;2549;52.128;21.068;2022-12-07T03:16:36;6.35;;;4.85;;
5060;SDS011;2549;52.128;21.068;2022-12-07T03:19:14;4.32;;;3.78;;
5060;SDS011;2549;52.128;21.068;2022-12-07T03:21:47;8.13;;;4.70;;
5060;SDS011;2549;52.128;21.068;2022-12-07T03:24:21;4.13;;;3.72;;
5060;SDS011;2549;52.128;21.068;2022-12-07T03:27:13;6.82;;;3.67;;
5060;SDS011;2549;52.128;21.068;2022-12-07T03:29:38;5.28;;;3.15;;
5060;SDS011;2549;52.128;21.068;2022-12-07T03:32:14;4.00;;;3.33;;
5060;SDS011;2549;52.128;21.068;2022-12-07T03:37:17;5.25;;;2.70;;
5060;SDS011;2549;52.128;21.068;2022-12-07T03:42:41;3.58;;;2.53;;
5060;SDS011;2549;52.128;21.068;2022-12-07T03:45:09;3.75;;;2.90;;
5060;SDS011;2549;52.128;21.068;2022-12-07T03:47:40;3.78;;;3.00;;
5060;SDS011;2549;52.128;21.068;2022-12-07T03:53:14;3.28;;;2.90;;
5060;SDS011;2549;52.128;21.068;2022-12-07T03:55:45;2.97;;;2.67;;
5060;SDS011;2549;52.128;21.068;2022-12-07T03:58:16;2.70;;;2.50;;
5060;SDS011;2549;52.128;21.068;2022-12-07T04:00:46;3.72;;;3.10;;
5060;SDS011;2549;52.128;21.068;2022-12-07T04:03:14;2.83;;;2.53;;
5060;SDS011;2549;52.128;21.068;2022-12-07T04:05:41;2.65;;;2.13;;
5060;SDS011;2549;52.128;21.068;2022-12-07T04:08:09;4.30;;;2.85;;
5060;SDS011;2549;52.128;21.068;2022-12-07T04:10:36;4.22;;;2.47;;
5060;SDS011;2549;52.128;21.068;2022-12-07T04:13:03;3.03;;;2.80;;
5060;SDS011;2549;52.128;21.068;2022-12-07T04:15:29;3.25;;;2.58;;
5060;SDS011;2549;52.128;21.068;2022-12-07T04:17:56;2.40;;;2.20;;
5060;SDS011;2549;52.128;21.068;2022-12-07T04:20:23;5.80;;;3.25;;
5060;SDS011;2549;52.128;21.068;2022-12-07T04:22:50;3.10;;;2.80;;
5060;SDS011;2549;52.128;21.068;2022-12-07T04:25:17;2.80;;;2.58;;
5060;SDS011;2549;52.128;21.068;2022-12-07T04:27:43;3.55;;;2.58;;
5060;SDS011;2549;52.128;21.068;2022-12-07T04:30:10;4.05;;;3.35;;
5060;SDS011;2549;52.128;21.068;2022-12-07T04:32:37;3.65;;;2.65;;
5060;SDS011;2549;52.128;21.068;2022-12-07T04:35:04;3.25;;;2.85;;
5060;SDS011;2549;52.128;21.068;2022-12-07T04:37:32;4.80;;;3.40;;
5060;SDS011;2549;52.128;21.068;2022-12-07T04:39:59;3.35;;;2.72;;
5060;SDS011;2549;52.128;21.068;2022-12-07T04:42:26;3.75;;;3.33;;
5060;SDS011;2549;52.128;21.068;2022-12-07T04:44:53;5.20;;;3.55;;
5060;SDS011;2549;52.128;21.068;2022-12-07T04:47:20;5.40;;;3.47;;
5060;SDS011;2549;52.128;21.068;2022-12-07T04:49:46;3.40;;;2.92;;
5060;SDS011;2549;52.128;21.068;2022-12-07T04:52:13;3.35;;;3.05;;
5060;SDS011;2549;52.128;21.068;2022-12-07T04:54:40;6.18;;;4.40;;
5060;SDS011;2549;52.128;21.068;2022-12-07T04:57:07;4.78;;;3.90;;
5060;SDS011;2549;52.128;21.068;2022-12-07T04:59:34;4.13;;;3.30;;
5060;SDS011;2549;52.128;21.068;2022-12-07T05:02:04;4.50;;;3.80;;
5060;SDS011;2549;52.128;21.068;2022-12-07T05:04:31;6.45;;;4.45;;
5060;SDS011;2549;52.128;21.068;2022-12-07T05:06:58;6.65;;;4.90;;
5060;SDS011;2549;52.128;21.068;2022-12-07T05:09:25;5.10;;;4.60;;
5060;SDS011;2549;52.128;21.068;2022-12-07T05:11:52;5.40;;;4.32;;
5060;SDS011;2549;52.128;21.068;2022-12-07T05:14:19;8.15;;;4.78;;
5060;SDS011;2549;52.128;21.068;2022-12-07T05:16:48;4.13;;;3.72;;
5060;SDS011;2549;52.128;21.068;2022-12-07T05:19:16;5.30;;;4.38;;
5060;SDS011;2549;52.128;21.068;2022-12-07T05:21:44;9.05;;;4.80;;
5060;SDS011;2549;52.128;21.068;2022-12-07T05:24:12;6.57;;;4.53;;
5060;SDS011;2549;52.128;21.068;2022-12-07T05:26:39;7.25;;;4.68;;
5060;SDS011;2549;52.128;21.068;2022-12-07T05:29:06;3.95;;;3.60;;
5060;SDS011;2549;52.128;21.068;2022-12-07T05:31:33;7.90;;;4.68;;
5060;SDS011;2549;52.128;21.068;2022-12-07T05:34:01;5.80;;;4.47;;
5060;SDS011;2549;52.128;21.068;2022-12-07T05:36:28;4.85;;;4.22;;
5060;SDS011;2549;52.128;21.068;2022-12-07T05:38:57;6.70;;;4.90;;
5060;SDS011;2549;52.128;21.068;2022-12-07T05:41:24;4.75;;;4.35;;
5060;SDS011;2549;52.128;21.068;2022-12-07T05:44:09;4.22;;;3.83;;
5060;SDS011;2549;52.128;21.068;2022-12-07T05:46:36;6.82;;;4.32;;
5060;SDS011;2549;52.128;21.068;2022-12-07T05:49:03;6.10;;;4.55;;
5060;SDS011;2549;52.128;21.068;2022-12-07T05:51:30;6.32;;;4.95;;
5060;SDS011;2549;52.128;21.068;2022-12-07T05:53:57;4.80;;;3.95;;
5060;SDS011;2549;52.128;21.068;2022-12-07T05:56:24;7.65;;;4.28;;
5060;SDS011;2549;52.128;21.068;2022-12-07T05:58:51;4.60;;;4.03;;
5060;SDS011;2549;52.128;21.068;2022-12-07T06:01:36;8.00;;;4.90;;
5060;SDS011;2549;52.128;21.068;2022-12-07T06:04:03;4.53;;;4.13;;
5060;SDS011;2549;52.128;21.068;2022-12-07T06:06:30;5.68;;;4.57;;
5060;SDS011;2549;52.128;21.068;2022-12-07T06:08:57;6.32;;;4.35;;
5060;SDS011;2549;52.128;21.068;2022-12-07T06:11:24;5.18;;;4.60;;
5060;SDS011;2549;52.128;21.068;2022-12-07T06:14:09;6.05;;;4.45;;
5060;SDS011;2549;52.128;21.068;2022-12-07T06:16:36;8.13;;;4.75;;
5060;SDS011;2549;52.128;21.068;2022-12-07T06:19:03;5.20;;;4.68;;
5060;SDS011;2549;52.128;21.068;2022-12-07T06:21:30;7.97;;;4.60;;
5060;SDS011;2549;52.128;21.068;2022-12-07T06:23:57;5.40;;;4.55;;
5060;SDS011;2549;52.128;21.068;2022-12-07T06:26:24;7.68;;;4.50;;
5060;SDS011;2549;52.128;21.068;2022-12-07T06:28:50;8.25;;;4.90;;
5060;SDS011;2549;52.128;21.068;2022-12-07T06:31:17;5.82;;;4.88;;
5060;SDS011;2549;52.128;21.068;2022-12-07T06:33:44;8.02;;;5.10;;
5060;SDS011;2549;52.128;21.068;2022-12-07T06:36:11;7.53;;;5.03;;
5060;SDS011;2549;52.128;21.068;2022-12-07T06:38:38;6.85;;;4.40;;
5060;SDS011;2549;52.128;21.068;2022-12-07T06:41:05;4.80;;;4.32;;
5060;SDS011;2549;52.128;21.068;2022-12-07T06:43:32;5.97;;;4.60;;
5060;SDS011;2549;52.128;21.068;2022-12-07T06:46:00;7.78;;;4.72;;
5060;SDS011;2549;52.128;21.068;2022-12-07T06:48:27;7.18;;;5.05;;
5060;SDS011;2549;52.128;21.068;2022-12-07T06:50:53;6.15;;;4.65;;
5060;SDS011;2549;52.128;21.068;2022-12-07T06:53:21;7.18;;;4.53;;
5060;SDS011;2549;52.128;21.068;2022-12-07T06:55:48;7.97;;;4.72;;
5060;SDS011;2549;52.128;21.068;2022-12-07T06:58:16;6.95;;;4.40;;
5060;SDS011;2549;52.128;21.068;2022-12-07T07:00:44;7.13;;;5.18;;
5060;SDS011;2549;52.128;21.068;2022-12-07T07:03:11;5.53;;;4.53;;
5060;SDS011;2549;52.128;21.068;2022-12-07T07:05:38;6.13;;;4.85;;
5060;SDS011;2549;52.128;21.068;2022-12-07T07:08:06;8.45;;;4.80;;
5060;SDS011;2549;52.128;21.068;2022-12-07T07:10:49;8.00;;;4.65;;
5060;SDS011;2549;52.128;21.068;2022-12-07T07:13:16;5.53;;;4.72;;
5060;SDS011;2549;52.128;21.068;2022-12-07T07:15:43;5.05;;;4.55;;
5060;SDS011;2549;52.128;21.068;2022-12-07T07:18:10;5.53;;;3.60;;
5060;SDS011;2549;52.128;21.068;2022-12-07T07:20:38;5.72;;;4.43;;
5060;SDS011;2549;52.128;21.068;2022-12-07T07:23:05;6.47;;;5.05;;
5060;SDS011;2549;52.128;21.068;2022-12-07T07:25:32;6.90;;;4.63;;
5060;SDS011;2549;52.128;21.068;2022-12-07T07:27:59;6.70;;;4.20;;
5060;SDS011;2549;52.128;21.068;2022-12-07T07:30:26;8.70;;;4.80;;
5060;SDS011;2549;52.128;21.068;2022-12-07T07:32:57;6.10;;;4.65;;
5060;SDS011;2549;52.128;21.068;2022-12-07T07:35:25;5.50;;;4.38;;
5060;SDS011;2549;52.128;21.068;2022-12-07T07:37:52;8.82;;;5.13;;
5060;SDS011;2549;52.128;21.068;2022-12-07T07:40:20;7.03;;;5.07;;
5060;SDS011;2549;52.128;21.068;2022-12-07T07:42:53;7.63;;;4.95;;
5060;SDS011;2549;52.128;21.068;2022-12-07T07:45:20;8.80;;;4.90;;
5060;SDS011;2549;52.128;21.068;2022-12-07T07:47:48;7.95;;;4.82;;
5060;SDS011;2549;52.128;21.068;2022-12-07T07:50:15;6.40;;;4.68;;
5060;SDS011;2549;52.128;21.068;2022-12-07T07:52:42;4.95;;;4.45;;
5060;SDS011;2549;52.128;21.068;2022-12-07T07:55:10;8.90;;;4.68;;
5060;SDS011;2549;52.128;21.068;2022-12-07T07:57:38;5.30;;;4.20;;
5060;SDS011;2549;52.128;21.068;2022-12-07T08:00:10;7.10;;;4.50;;
5060;SDS011;2549;52.128;21.068;2022-12-07T08:02:38;6.82;;;4.40;;
5060;SDS011;2549;52.128;21.068;2022-12-07T08:05:06;6.93;;;4.40;;
5060;SDS011;2549;52.128;21.068;2022-12-07T08:07:33;4.32;;;3.60;;
5060;SDS011;2549;52.128;21.068;2022-12-07T08:10:00;8.75;;;3.90;;
5060;SDS011;2549;52.128;21.068;2022-12-07T08:12:28;5.53;;;3.72;;
5060;SDS011;2549;52.128;21.068;2022-12-07T08:14:54;6.90;;;3.88;;
5060;SDS011;2549;52.128;21.068;2022-12-07T08:17:21;3.95;;;3.42;;
5060;SDS011;2549;52.128;21.068;2022-12-07T08:19:48;5.88;;;3.85;;
5060;SDS011;2549;52.128;21.068;2022-12-07T08:22:15;4.18;;;3.75;;
5060;SDS011;2549;52.128;21.068;2022-12-07T08:24:42;3.50;;;3.17;;
5060;SDS011;2549;52.128;21.068;2022-12-07T08:27:09;4.50;;;4.05;;
5060;SDS011;2549;52.128;21.068;2022-12-07T08:29:36;4.45;;;3.65;;
5060;SDS011;2549;52.128;21.068;2022-12-07T08:32:02;4.30;;;3.67;;
5060;SDS011;2549;52.128;21.068;2022-12-07T08:34:34;6.65;;;4.30;;
5060;SDS011;2549;52.128;21.068;2022-12-07T08:37:02;7.05;;;4.35;;
5060;SDS011;2549;52.128;21.068;2022-12-07T08:39:28;4.18;;;3.78;;
5060;SDS011;2549;52.128;21.068;2022-12-07T08:41:57;7.75;;;4.07;;
5060;SDS011;2549;52.128;21.068;2022-12-07T08:44:24;6.20;;;4.30;;
5060;SDS011;2549;52.128;21.068;2022-12-07T08:46:56;7.30;;;4.25;;
5060;SDS011;2549;52.128;21.068;2022-12-07T08:49:42;6.18;;;4.25;;
5060;SDS011;2549;52.128;21.068;2022-12-07T08:52:13;9.45;;;4.90;;
5060;SDS011;2549;52.128;21.068;2022-12-07T08:54:40;7.35;;;5.13;;
5060;SDS011;2549;52.128;21.068;2022-12-07T08:57:08;7.57;;;5.32;;
5060;SDS011;2549;52.128;21.068;2022-12-07T08:59:36;6.47;;;4.88;;
5060;SDS011;2549;52.128;21.068;2022-12-07T09:02:04;12.00;;;5.88;;
5060;SDS011;2549;52.128;21.068;2022-12-07T09:04:32;8.35;;;5.07;;
5060;SDS011;2549;52.128;21.068;2022-12-07T09:06:59;8.25;;;4.85;;
5060;SDS011;2549;52.128;21.068;2022-12-07T09:09:26;7.75;;;5.68;;
5060;SDS011;2549;52.128;21.068;2022-12-07T09:11:55;10.73;;;5.93;;
5060;SDS011;2549;52.128;21.068;2022-12-07T09:14:22;11.95;;;6.55;;
5060;SDS011;2549;52.128;21.068;2022-12-07T09:16:49;9.43;;;5.53;;
5060;SDS011;2549;52.128;21.068;2022-12-07T09:19:16;9.20;;;6.55;;
5060;SDS011;2549;52.128;21.068;2022-12-07T09:21:43;12.20;;;6.63;;
5060;SDS011;2549;52.128;21.068;2022-12-07T09:24:11;12.40;;;6.70;;
5060;SDS011;2549;52.128;21.068;2022-12-07T09:26:38;11.10;;;6.63;;
5060;SDS011;2549;52.128;21.068;2022-12-07T09:29:06;10.20;;;6.88;;
5060;SDS011;2549;52.128;21.068;2022-12-07T09:31:35;12.77;;;6.00;;
5060;SDS011;2549;52.128;21.068;2022-12-07T09:34:02;9.07;;;6.13;;
5060;SDS011;2549;52.128;21.068;2022-12-07T09:36:31;10.30;;;6.60;;
5060;SDS011;2549;52.128;21.068;2022-12-07T09:38:58;11.55;;;6.95;;
5060;SDS011;2549;52.128;21.068;2022-12-07T09:41:25;14.32;;;6.82;;
5060;SDS011;2549;52.128;21.068;2022-12-07T09:43:55;11.20;;;6.65;;
5060;SDS011;2549;52.128;21.068;2022-12-07T09:46:30;12.63;;;6.28;;
5060;SDS011;2549;52.128;21.068;2022-12-07T09:49:03;13.55;;;7.85;;
5060;SDS011;2549;52.128;21.068;2022-12-07T09:51:30;11.93;;;7.45;;
5060;SDS011;2549;52.128;21.068;2022-12-07T09:53:58;12.63;;;8.20;;
5060;SDS011;2549;52.128;21.068;2022-12-07T09:56:28;11.48;;;7.72;;
5060;SDS011;2549;52.128;21.068;2022-12-07T09:58:58;14.85;;;7.72;;
5060;SDS011;2549;52.128;21.068;2022-12-07T10:01:28;13.90;;;7.35;;
5060;SDS011;2549;52.128;21.068;2022-12-07T10:04:02;13.10;;;6.88;;
5060;SDS011;2549;52.128;21.068;2022-12-07T10:06:39;8.15;;;6.82;;
5060;SDS011;2549;52.128;21.068;2022-12-07T10:09:11;13.07;;;6.85;;
5060;SDS011;2549;52.128;21.068;2022-12-07T10:14:33;14.88;;;7.63;;
5060;SDS011;2549;52.128;21.068;2022-12-07T10:25:34;13.85;;;7.70;;
5060;SDS011;2549;52.128;21.068;2022-12-07T10:30:29;12.23;;;6.38;;
5060;SDS011;2549;52.128;21.068;2022-12-07T10:32:57;14.43;;;6.60;;
5060;SDS011;2549;52.128;21.068;2022-12-07T10:35:26;18.48;;;8.23;;
5060;SDS011;2549;52.128;21.068;2022-12-07T10:37:55;12.13;;;7.15;;
5060;SDS011;2549;52.128;21.068;2022-12-07T10:40:26;15.23;;;7.07;;
5060;SDS011;2549;52.128;21.068;2022-12-07T10:43:00;13.25;;;7.43;;
5060;SDS011;2549;52.128;21.068;2022-12-07T10:45:57;11.20;;;7.30;;
5060;SDS011;2549;52.128;21.068;2022-12-07T11:13:22;10.70;;;6.90;;
5060;SDS011;2549;52.128;21.068;2022-12-07T11:18:41;9.25;;;6.57;;
5060;SDS011;2549;52.128;21.068;2022-12-07T11:24:09;8.15;;;6.18;;
5060;SDS011;2549;52.128;21.068;2022-12-07T11:37:30;8.35;;;6.13;;
5060;SDS011;2549;52.128;21.068;2022-12-07T11:40:08;6.68;;;5.65;;
5060;SDS011;2549;52.128;21.068;2022-12-07T11:42:52;8.93;;;6.28;;
5060;SDS011;2549;52.128;21.068;2022-12-07T11:45:29;8.75;;;5.45;;
5060;SDS011;2549;52.128;21.068;2022-12-07T11:48:06;9.48;;;6.05;;
5060;SDS011;2549;52.128;21.068;2022-12-07T11:50:52;6.65;;;5.43;;
5060;SDS011;2549;52.128;21.068;2022-12-07T12:06:40;10.35;;;6.00;;
5060;SDS011;2549;52.128;21.068;2022-12-07T12:20:31;11.55;;;7.30;;
5060;SDS011;2549;52.128;21.068;2022-12-07T12:23:12;11.18;;;7.00;;
5060;SDS011;2549;52.128;21.068;2022-12-07T12:26:02;9.40;;;6.53;;
5060;SDS011;2549;52.128;21.068;2022-12-07T12:28:40;7.65;;;5.80;;
5060;SDS011;2549;52.128;21.068;2022-12-07T12:31:17;9.23;;;6.45;;
5060;SDS011;2549;52.128;21.068;2022-12-07T12:33:59;9.80;;;6.18;;
5060;SDS011;2549;52.128;21.068;2022-12-07T12:47:01;9.35;;;5.85;;
5060;SDS011;2549;52.128;21.068;2022-12-07T12:49:40;10.38;;;5.90;;
5060;SDS011;2549;52.128;21.068;2022-12-07T12:57:39;9.35;;;5.85;;
5060;SDS011;2549;52.128;21.068;2022-12-07T13:00:22;5.60;;;5.07;;
5060;SDS011;2549;52.128;21.068;2022-12-07T13:02:52;5.22;;;4.65;;
5060;SDS011;2549;52.128;21.068;2022-12-07T13:05:21;8.57;;;5.00;;
5060;SDS011;2549;52.128;21.068;2022-12-07T13:07:55;6.13;;;4.57;;
5060;SDS011;2549;52.128;21.068;2022-12-07T13:18:36;6.32;;;5.22;;
5060;SDS011;2549;52.128;21.068;2022-12-07T13:34:02;6.20;;;4.72;;
5060;SDS011;2549;52.128;21.068;2022-12-07T13:39:19;5.32;;;4.82;;
5060;SDS011;2549;52.128;21.068;2022-12-07T13:41:52;4.25;;;3.85;;
5060;SDS011;2549;52.128;21.068;2022-12-07T13:44:21;5.75;;;4.40;;
5060;SDS011;2549;52.128;21.068;2022-12-07T13:49:46;5.22;;;4.63;;
5060;SDS011;2549;52.128;21.068;2022-12-07T13:57:25;5.82;;;4.35;;
5060;SDS011;2549;52.128;21.068;2022-12-07T13:59:53;4.50;;;4.05;;
5060;SDS011;2549;52.128;21.068;2022-12-07T14:02:25;6.30;;;4.78;;
5060;SDS011;2549;52.128;21.068;2022-12-07T14:08:00;9.27;;;5.18;;
5060;SDS011;2549;52.128;21.068;2022-12-07T14:10:40;7.10;;;5.63;;
5060;SDS011;2549;52.128;21.068;2022-12-07T14:13:28;6.55;;;5.13;;
5060;SDS011;2549;52.128;21.068;2022-12-07T14:15:58;9.13;;;6.30;;
5060;SDS011;2549;52.128;21.068;2022-12-07T14:18:29;8.15;;;5.95;;
5060;SDS011;2549;52.128;21.068;2022-12-07T14:23:32;7.53;;;5.20;;
5060;SDS011;2549;52.128;21.068;2022-12-07T14:26:20;9.05;;;5.72;;
5060;SDS011;2549;52.128;21.068;2022-12-07T14:28:46;7.05;;;5.75;;
5060;SDS011;2549;52.128;21.068;2022-12-07T14:31:15;6.93;;;5.55;;
5060;SDS011;2549;52.128;21.068;2022-12-07T14:33:58;10.13;;;5.57;;
5060;SDS011;2549;52.128;21.068;2022-12-07T14:36:25;10.02;;;6.20;;
5060;SDS011;2549;52.128;21.068;2022-12-07T14:38:52;8.32;;;5.70;;
5060;SDS011;2549;52.128;21.068;2022-12-07T14:41:22;10.13;;;6.20;;
5060;SDS011;2549;52.128;21.068;2022-12-07T14:44:11;7.82;;;5.45;;
5060;SDS011;2549;52.128;21.068;2022-12-07T14:46:58;8.55;;;6.30;;
5060;SDS011;2549;52.128;21.068;2022-12-07T14:49:45;7.88;;;5.50;;
5060;SDS011;2549;52.128;21.068;2022-12-07T14:52:13;8.70;;;6.28;;
5060;SDS011;2549;52.128;21.068;2022-12-07T14:55:44;7.00;;;5.18;;
5060;SDS011;2549;52.128;21.068;2022-12-07T14:58:04;7.53;;;5.60;;
5060;SDS011;2549;52.128;21.068;2022-12-07T15:00:30;6.35;;;5.13;;
5060;SDS011;2549;52.128;21.068;2022-12-07T15:02:57;7.25;;;6.03;;
5060;SDS011;2549;52.128;21.068;2022-12-07T15:05:25;10.73;;;6.28;;
5060;SDS011;2549;52.128;21.068;2022-12-07T15:07:52;8.20;;;6.10;;
5060;SDS011;2549;52.128;21.068;2022-12-07T15:10:21;8.48;;;6.45;;
5060;SDS011;2549;52.128;21.068;2022-12-07T15:12:50;6.57;;;5.57;;
5060;SDS011;2549;52.128;21.068;2022-12-07T15:15:17;8.05;;;6.57;;
5060;SDS011;2549;52.128;21.068;2022-12-07T15:17:44;8.73;;;6.90;;
5060;SDS011;2549;52.128;21.068;2022-12-07T15:20:11;10.10;;;6.70;;
5060;SDS011;2549;52.128;21.068;2022-12-07T15:22:39;9.70;;;6.50;;
5060;SDS011;2549;52.128;21.068;2022-12-07T15:25:06;7.72;;;6.32;;
5060;SDS011;2549;52.128;21.068;2022-12-07T15:27:35;9.55;;;6.80;;
5060;SDS011;2549;52.128;21.068;2022-12-07T15:30:02;10.18;;;6.10;;
5060;SDS011;2549;52.128;21.068;2022-12-07T15:32:29;12.40;;;6.72;;
5060;SDS011;2549;52.128;21.068;2022-12-07T15:34:56;7.43;;;6.40;;
5060;SDS011;2549;52.128;21.068;2022-12-07T15:37:23;9.75;;;6.82;;
5060;SDS011;2549;52.128;21.068;2022-12-07T15:39:50;10.85;;;7.18;;
5060;SDS011;2549;52.128;21.068;2022-12-07T15:42:16;9.48;;;7.38;;
5060;SDS011;2549;52.128;21.068;2022-12-07T15:44:43;10.35;;;6.72;;
5060;SDS011;2549;52.128;21.068;2022-12-07T15:47:40;8.52;;;6.20;;
5060;SDS011;2549;52.128;21.068;2022-12-07T15:50:29;9.20;;;6.07;;
5060;SDS011;2549;52.128;21.068;2022-12-07T15:52:55;7.28;;;5.95;;
5060;SDS011;2549;52.128;21.068;2022-12-07T15:55:22;10.55;;;7.43;;
5060;SDS011;2549;52.128;21.068;2022-12-07T15:57:49;11.32;;;7.22;;
5060;SDS011;2549;52.128;21.068;2022-12-07T16:00:16;10.70;;;7.40;;
5060;SDS011;2549;52.128;21.068;2022-12-07T16:02:43;10.93;;;7.28;;
5060;SDS011;2549;52.128;21.068;2022-12-07T16:05:10;10.18;;;6.78;;
5060;SDS011;2549;52.128;21.068;2022-12-07T16:07:37;10.50;;;6.80;;
5060;SDS011;2549;52.128;21.068;2022-12-07T16:10:04;9.10;;;6.72;;
5060;SDS011;2549;52.128;21.068;2022-12-07T16:12:32;14.75;;;7.00;;
5060;SDS011;2549;52.128;21.068;2022-12-07T16:14:58;9.80;;;6.95;;
5060;SDS011;2549;52.128;21.068;2022-12-07T16:17:26;9.70;;;6.97;;
5060;SDS011;2549;52.128;21.068;2022-12-07T16:19:52;12.95;;;7.28;;
5060;SDS011;2549;52.128;21.068;2022-12-07T16:22:19;11.48;;;7.80;;
5060;SDS011;2549;52.128;21.068;2022-12-07T16:24:46;10.00;;;7.07;;
5060;SDS011;2549;52.128;21.068;2022-12-07T16:27:13;10.98;;;7.68;;
5060;SDS011;2549;52.128;21.068;2022-12-07T16:29:40;10.38;;;7.40;;
5060;SDS011;2549;52.128;21.068;2022-12-07T16:32:07;12.20;;;7.60;;
5060;SDS011;2549;52.128;21.068;2022-12-07T16:34:34;13.95;;;8.02;;
5060;SDS011;2549;52.128;21.068;2022-12-07T16:37:00;12.20;;;7.72;;
5060;SDS011;2549;52.128;21.068;2022-12-07T16:39:30;13.90;;;7.90;;
5060;SDS011;2549;52.128;21.068;2022-12-07T16:41:56;15.50;;;9.07;;
5060;SDS011;2549;52.128;21.068;2022-12-07T16:44:23;12.57;;;8.82;;
5060;SDS011;2549;52.128;21.068;2022-12-07T16:46:50;16.05;;;8.70;;
5060;SDS011;2549;52.128;21.068;2022-12-07T16:49:17;13.95;;;8.32;;
5060;SDS011;2549;52.128;21.068;2022-12-07T16:51:45;12.05;;;8.20;;
5060;SDS011;2549;52.128;21.068;2022-12-07T16:54:35;13.90;;;8.30;;
5060;SDS011;2549;52.128;21.068;2022-12-07T16:57:02;13.82;;;8.65;;
5060;SDS011;2549;52.128;21.068;2022-12-07T16:59:29;13.50;;;7.13;;
5060;SDS011;2549;52.128;21.068;2022-12-07T17:01:56;10.95;;;7.22;;
5060;SDS011;2549;52.128;21.068;2022-12-07T17:04:23;11.75;;;8.25;;
5060;SDS011;2549;52.128;21.068;2022-12-07T17:06:50;11.48;;;7.78;;
5060;SDS011;2549;52.128;21.068;2022-12-07T17:09:16;14.57;;;7.90;;
5060;SDS011;2549;52.128;21.068;2022-12-07T17:11:46;10.75;;;7.75;;
5060;SDS011;2549;52.128;21.068;2022-12-07T17:14:14;12.05;;;7.65;;
5060;SDS011;2549;52.128;21.068;2022-12-07T17:16:59;12.65;;;6.93;;
5060;SDS011;2549;52.128;21.068;2022-12-07T17:19:26;10.50;;;7.85;;
5060;SDS011;2549;52.128;21.068;2022-12-07T17:21:53;12.13;;;7.50;;
5060;SDS011;2549;52.128;21.068;2022-12-07T17:24:20;13.75;;;7.70;;
5060;SDS011;2549;52.128;21.068;2022-12-07T17:26:48;13.95;;;8.50;;
5060;SDS011;2549;52.128;21.068;2022-12-07T17:29:16;8.35;;;7.25;;
5060;SDS011;2549;52.128;21.068;2022-12-07T17:31:44;10.25;;;7.30;;
5060;SDS011;2549;52.128;21.068;2022-12-07T17:34:17;11.23;;;7.32;;
5060;SDS011;2549;52.128;21.068;2022-12-07T17:36:44;12.05;;;7.78;;
5060;SDS011;2549;52.128;21.068;2022-12-07T17:39:13;15.27;;;8.48;;
5060;SDS011;2549;52.128;21.068;2022-12-07T17:41:42;11.30;;;7.78;;
5060;SDS011;2549;52.128;21.068;2022-12-07T17:44:27;13.15;;;7.28;;
5060;SDS011;2549;52.128;21.068;2022-12-07T17:46:54;10.23;;;7.35;;
5060;SDS011;2549;52.128;21.068;2022-12-07T17:49:24;16.20;;;9.05;;
5060;SDS011;2549;52.128;21.068;2022-12-07T17:51:51;12.75;;;7.78;;
5060;SDS011;2549;52.128;21.068;2022-12-07T17:54:37;12.77;;;8.43;;
5060;SDS011;2549;52.128;21.068;2022-12-07T17:57:04;12.13;;;8.10;;
5060;SDS011;2549;52.128;21.068;2022-12-07T17:59:31;13.40;;;7.03;;